Time;durP1;ratioP1;P1;durP2;ratioP2;P2;SDS_P1;SDS_P2;PMS_P1;PMS_P2;Temp;Humidity;BMP_temperature;BMP_pressure;BME280_temperature;BME280_humidity;BME280_pressure;Samples;Min_cycle;Max_cycle;Signal;HPM_P1;HPM_P2
2022/01/01 00:01:47;;;;;;;206.43;152.57;;;;;;;10.10;100.00;102117.47;5074685;28;20468;-52
2022/01/01 00:04:13;;;;;;;214.73;148.45;;;;;;;10.09;100.00;102113.13;5057337;28;20028;-50
2022/01/01 00:06:38;;;;;;;181.68;129.35;;;;;;;10.06;100.00;102112.25;5074554;28;20053;-50
2022/01/01 00:09:04;;;;;;;198.85;136.35;;;;;;;9.72;100.00;102058.25;5074974;28;20120;-53
2022/01/01 00:11:29;;;;;;;225.98;153.57;;;;;;;9.97;100.00;102089.56;5057026;28;20075;-53
2022/01/01 00:13:55;;;;;;;285.95;207.88;;;;;;;9.70;100.00;102039.84;5057165;28;20483;-49
2022/01/01 00:16:20;;;;;;;284.23;203.50;;;;;;;9.63;100.00;102021.53;5075019;28;20472;-52
2022/01/01 00:18:45;;;;;;;253.75;169.15;;;;;;;9.54;100.00;102012.81;5075035;28;20102;-50
2022/01/01 00:21:11;;;;;;;223.48;147.48;;;;;;;10.01;100.00;102101.78;5074725;28;20033;-52
2022/01/01 00:23:36;;;;;;;203.32;130.85;;;;;;;10.05;100.00;102103.50;5074818;28;20041;-47
2022/01/01 00:26:02;;;;;;;191.32;128.73;;;;;;;9.66;100.00;102038.13;5074850;28;20502;-52
2022/01/01 00:28:27;;;;;;;190.57;126.00;;;;;;;9.96;100.00;102087.81;5056738;28;20063;-50
2022/01/01 00:30:52;;;;;;;178.98;119.53;;;;;;;9.63;100.00;102026.78;5074559;28;20132;-50
2022/01/01 00:33:18;;;;;;;153.35;99.75;;;;;;;10.11;100.00;102095.53;5074510;28;20063;-51
2022/01/01 00:35:43;;;;;;;159.95;102.63;;;;;;;10.12;100.00;102101.69;5074741;28;20083;-48
2022/01/01 00:38:09;;;;;;;187.00;120.20;;;;;;;10.16;100.00;102104.28;5074596;28;20025;-52
2022/01/01 00:40:34;;;;;;;152.48;92.97;;;;;;;10.06;100.00;102081.56;5074470;28;20094;-52
2022/01/01 00:43:03;;;;;;;154.80;92.50;;;;;;;9.76;100.00;102013.50;5074698;28;20089;-52
2022/01/01 00:45:29;;;;;;;156.07;92.13;;;;;;;10.18;100.00;102085.00;5074595;28;20032;-50
2022/01/01 00:47:54;;;;;;;156.45;91.93;;;;;;;10.18;100.00;102087.63;5074460;28;20029;-51
2022/01/01 00:50:19;;;;;;;162.43;98.30;;;;;;;10.01;100.00;102064.94;5056612;28;20111;-52
2022/01/01 00:52:45;;;;;;;178.57;106.03;;;;;;;10.12;100.00;102088.53;5056506;28;20037;-50
2022/01/01 00:55:11;;;;;;;178.75;97.70;;;;;;;9.61;100.00;101997.88;5074204;28;20485;-52
2022/01/01 00:57:37;;;;;;;156.25;90.53;;;;;;;9.70;100.00;102021.44;5074070;28;20145;-52
2022/01/01 01:00:04;;;;;;;173.70;91.15;;;;;;;10.04;100.00;102111.41;5056414;28;20036;-50
2022/01/01 01:02:30;;;;;;;164.90;87.32;;;;;;;10.03;100.00;102113.16;5073357;28;20033;-51
2022/01/01 01:04:56;;;;;;;169.82;90.68;;;;;;;9.98;100.00;102111.47;5056473;28;20060;-51
2022/01/01 01:07:21;;;;;;;160.68;86.53;;;;;;;9.58;100.00;102043.47;5074014;28;20053;-49
2022/01/01 01:09:46;;;;;;;153.05;86.10;;;;;;;9.58;100.00;102053.97;5074220;28;20093;-51
2022/01/01 01:12:12;;;;;;;164.77;82.07;;;;;;;9.57;100.00;102070.63;5073751;28;20044;-50
2022/01/01 01:14:41;;;;;;;146.82;79.90;;;;;;;9.98;100.00;102119.38;5056109;28;20037;-49
2022/01/01 01:17:07;;;;;;;140.82;70.82;;;;;;;10.16;100.00;102125.34;5073626;28;20490;-48
2022/01/01 01:19:32;;;;;;;152.60;76.35;;;;;;;10.12;100.00;102110.44;5073826;28;20036;-51
2022/01/01 01:21:58;;;;;;;150.65;76.25;;;;;;;10.25;100.00;102126.13;5073999;28;20120;-51
2022/01/01 01:24:25;;;;;;;124.60;64.68;;;;;;;9.90;100.00;102061.56;5073744;28;20492;-51
2022/01/01 01:26:51;;;;;;;125.28;61.78;;;;;;;10.21;100.00;102101.63;5056101;28;20361;-50
2022/01/01 01:29:18;;;;;;;121.50;63.05;;;;;;;10.35;100.00;102133.91;5073640;28;20032;-53
2022/01/01 01:31:43;;;;;;;131.38;58.72;;;;;;;10.12;100.00;102078.00;5055746;28;20032;-52
2022/01/01 01:34:09;;;;;;;110.13;48.85;;;;;;;10.06;100.00;102067.53;5073361;28;20426;-50
2022/01/01 01:36:34;;;;;;;99.00;44.20;;;;;;;10.03;100.00;102063.19;5039007;28;20062;-53
2022/01/01 01:39:00;;;;;;;91.85;42.88;;;;;;;10.14;100.00;102074.50;5073170;28;20383;-50
2022/01/01 01:41:29;;;;;;;96.25;41.60;;;;;;;10.19;100.00;102071.78;5055377;28;20040;-49
2022/01/01 01:43:56;;;;;;;95.45;41.10;;;;;;;10.40;100.00;102102.25;5073420;28;20037;-52
2022/01/01 01:46:22;;;;;;;87.05;44.75;;;;;;;10.46;100.00;102121.50;5073247;28;20472;-50
2022/01/01 01:48:47;;;;;;;73.90;37.78;;;;;;;10.62;100.00;102128.31;5073089;28;20036;-48
2022/01/01 01:51:13;;;;;;;76.22;35.42;;;;;;;10.70;100.00;102152.81;5072904;28;20037;-49
2022/01/01 01:53:40;;;;;;;78.45;35.75;;;;;;;10.34;100.00;102069.00;5038439;28;20037;-53
2022/01/01 01:56:05;;;;;;;68.18;33.50;;;;;;;10.77;100.00;102132.50;5072794;28;20537;-50
2022/01/01 01:58:30;;;;;;;90.93;43.83;;;;;;;10.52;100.00;102063.50;5073008;28;20036;-51
2022/01/01 02:01:20;;;;;;;66.07;32.47;;;;;;;10.89;100.00;102131.50;5055163;28;20040;-51
2022/01/01 02:03:47;;;;;;;75.82;36.33;;;;;;;10.86;100.00;102121.03;5072754;28;20059;-49
2022/01/01 02:06:12;;;;;;;65.50;27.95;;;;;;;10.42;100.00;102035.53;5055086;28;20486;-51
2022/01/01 02:08:37;;;;;;;63.13;27.10;;;;;;;10.86;100.00;102108.69;5055032;28;20313;-51
2022/01/01 02:11:03;;;;;;;57.60;25.13;;;;;;;10.95;100.00;102123.50;5054759;28;20065;-53
2022/01/01 02:14:18;;;;;;;53.20;24.73;;;;;;;10.97;100.00;102121.75;5053997;28;20085;-52
2022/01/01 02:16:33;;;;;;;58.15;21.77;;;;;;;10.90;100.00;102094.59;5061525;28;20377;-51
2022/01/01 02:18:58;;;;;;;53.53;21.25;;;;;;;10.56;100.00;102022.22;5072899;28;20036;-52
2022/01/01 02:21:24;;;;;;;61.38;23.30;;;;;;;11.02;100.00;102104.09;5054941;28;20029;-47
2022/01/01 02:23:57;;;;;;;54.88;22.45;;;;;;;11.03;100.00;102111.13;5038265;28;20033;-50
2022/01/01 02:26:28;;;;;;;58.67;24.15;;;;;;;10.74;100.00;102049.16;5055687;28;20041;-51
2022/01/01 02:28:53;;;;;;;53.25;25.58;;;;;;;10.85;100.00;102059.56;5072422;28;20368;-48
2022/01/01 02:31:19;;;;;;;66.80;28.35;;;;;;;10.76;100.00;102041.25;5072171;28;20039;-48
2022/01/01 02:33:44;;;;;;;66.82;33.60;;;;;;;10.78;100.00;102039.47;5072596;28;20029;-53
2022/01/01 02:36:10;;;;;;;61.67;25.27;;;;;;;11.05;100.00;102077.72;5072657;28;20063;-48
2022/01/01 02:38:36;;;;;;;59.60;23.48;;;;;;;10.91;100.00;102066.50;5072581;28;20043;-48
2022/01/01 02:41:02;;;;;;;58.53;21.60;;;;;;;10.94;100.00;102059.44;5072402;28;20055;-50
2022/01/01 02:43:28;;;;;;;50.97;23.15;;;;;;;11.30;100.00;102113.34;5054361;28;20033;-48
2022/01/01 02:45:54;;;;;;;55.75;22.08;;;;;;;11.33;100.00;102121.19;5072165;28;20037;-51
2022/01/01 02:48:20;;;;;;;49.03;21.98;;;;;;;11.22;100.00;102092.38;5072449;28;20550;-48
2022/01/01 02:50:45;;;;;;;52.28;22.17;;;;;;;11.39;100.00;102114.94;5072153;28;20031;-49
2022/01/01 02:53:15;;;;;;;61.75;24.92;;;;;;;10.95;100.00;102049.75;5054445;28;20540;-49
2022/01/01 02:55:41;;;;;;;56.03;23.40;;;;;;;11.37;100.00;102114.13;5054520;28;20107;-55
2022/01/01 02:58:06;;;;;;;54.85;25.20;;;;;;;11.34;100.00;102106.25;5054259;28;20052;-49
2022/01/01 03:00:31;;;;;;;50.45;25.58;;;;;;;11.02;100.00;102054.03;5072090;28;20041;-49
2022/01/01 03:02:57;;;;;;;52.10;25.05;;;;;;;11.38;100.00;102118.50;5054231;28;20127;-52
2022/01/01 03:05:22;;;;;;;62.38;26.90;;;;;;;10.74;100.00;102016.69;5072253;28;20036;-49
2022/01/01 03:07:48;;;;;;;58.90;27.98;;;;;;;11.31;100.00;102107.19;5071953;28;20529;-48
2022/01/01 03:10:13;;;;;;;57.60;27.60;;;;;;;11.35;100.00;102103.63;5054459;28;20036;-49
2022/01/01 03:12:38;;;;;;;59.90;27.70;;;;;;;11.36;100.00;102089.50;5072035;28;20036;-51
2022/01/01 03:15:04;;;;;;;53.97;27.85;;;;;;;11.49;100.00;102091.06;5072025;28;20387;-51
2022/01/01 03:17:30;;;;;;;51.35;27.00;;;;;;;11.16;100.00;102033.63;5072193;28;20024;-51
2022/01/01 03:19:55;;;;;;;52.45;27.67;;;;;;;11.13;100.00;102017.84;5072163;28;20032;-48
2022/01/01 03:22:20;;;;;;;52.60;27.38;;;;;;;11.38;100.00;102079.84;5072031;28;20106;-50
2022/01/01 03:24:46;;;;;;;56.08;27.63;;;;;;;11.38;100.00;102074.56;5073114;28;20496;-53
2022/01/01 03:27:11;;;;;;;52.05;26.80;;;;;;;11.18;100.00;102059.03;5075867;28;20037;-47
2022/01/01 03:29:36;;;;;;;52.45;27.75;;;;;;;11.19;100.00;102076.59;5075730;28;20032;-50
2022/01/01 03:32:02;;;;;;;62.42;27.60;;;;;;;11.19;100.00;102083.63;5075763;28;20123;-50
2022/01/01 03:34:27;;;;;;;50.95;26.40;;;;;;;10.76;100.00;101998.25;5075806;28;20032;-49
2022/01/01 03:36:52;;;;;;;60.65;26.63;;;;;;;11.17;100.00;102077.53;5075553;28;20040;-51
2022/01/01 03:39:18;;;;;;;60.80;24.10;;;;;;;10.88;100.00;102032.31;5075532;28;20531;-53
2022/01/01 03:41:43;;;;;;;43.42;23.30;;;;;;;11.19;100.00;102091.53;5075551;28;20411;-49
2022/01/01 03:44:09;;;;;;;48.70;22.50;;;;;;;10.78;100.00;102023.66;5075519;28;20089;-50
2022/01/01 03:46:34;;;;;;;50.88;20.92;;;;;;;11.00;100.00;102059.34;5075777;28;20061;-50
2022/01/01 03:48:59;;;;;;;51.55;22.88;;;;;;;10.74;100.00;102012.28;5075654;28;20024;-48
2022/01/01 03:51:25;;;;;;;37.92;21.67;;;;;;;11.13;100.00;102086.38;5075254;28;20480;-50
2022/01/01 03:53:50;;;;;;;44.28;21.13;;;;;;;11.05;100.00;102088.25;5075426;28;20028;-51
2022/01/01 03:56:16;;;;;;;45.88;22.08;;;;;;;10.73;100.00;102041.28;5075308;28;20527;-49
2022/01/01 03:58:41;;;;;;;46.40;23.63;;;;;;;10.98;100.00;102102.38;5075245;28;20032;-48
2022/01/01 04:01:07;;;;;;;50.70;24.80;;;;;;;10.89;100.00;102078.81;5075262;28;20042;-52
2022/01/01 04:03:32;;;;;;;47.03;22.60;;;;;;;10.96;100.00;102096.28;5075112;28;20400;-48
2022/01/01 04:05:57;;;;;;;45.85;21.45;;;;;;;11.05;100.00;102096.16;5075127;28;20078;-50
2022/01/01 04:08:23;;;;;;;43.55;21.88;;;;;;;10.69;100.00;102032.56;5057045;28;20055;-48
2022/01/01 04:10:48;;;;;;;41.35;22.95;;;;;;;11.16;100.00;102120.56;5074824;28;20489;-49
2022/01/01 04:13:13;;;;;;;46.70;24.02;;;;;;;10.95;100.00;102055.88;5074944;28;20032;-49
2022/01/01 04:15:41;;;;;;;43.67;22.38;;;;;;;10.77;100.00;102014.00;5074648;28;20483;-51
2022/01/01 04:18:10;;;;;;;42.67;23.20;;;;;;;11.23;100.00;102093.25;5057167;28;20086;-49
2022/01/01 04:20:36;;;;;;;36.42;20.70;;;;;;;11.34;100.00;102093.94;5057780;28;20037;-49
2022/01/01 04:23:01;;;;;;;35.53;20.92;;;;;;;11.30;100.00;102081.69;5074840;28;20062;-48
2022/01/01 04:25:27;;;;;;;35.05;20.48;;;;;;;11.39;100.00;102094.75;5056872;28;20028;-49
2022/01/01 04:27:55;;;;;;;36.65;21.00;;;;;;;11.07;100.00;102039.03;5074633;28;20446;-50
2022/01/01 04:30:21;;;;;;;35.03;20.40;;;;;;;11.40;100.00;102112.31;5056851;28;20024;-54
2022/01/01 04:32:47;;;;;;;35.03;20.67;;;;;;;11.30;100.00;102097.53;5074772;28;20036;-52
2022/01/01 04:35:12;;;;;;;32.80;19.27;;;;;;;10.96;100.00;102048.84;5074644;28;20534;-52
2022/01/01 04:37:38;;;;;;;39.20;20.25;;;;;;;11.40;100.00;102128.13;5073668;28;20059;-48
2022/01/01 04:40:07;;;;;;;38.28;20.40;;;;;;;11.04;100.00;102050.47;5074631;28;20488;-48
2022/01/01 04:42:32;;;;;;;37.17;19.10;;;;;;;11.05;100.00;102057.50;5074690;28;20054;-47
2022/01/01 04:44:58;;;;;;;39.20;19.27;;;;;;;11.06;100.00;102063.66;5056496;28;20036;-49
2022/01/01 04:47:24;;;;;;;29.52;17.67;;;;;;;11.10;100.00;102050.38;5056538;28;20099;-51
2022/01/01 04:49:50;;;;;;;34.53;18.45;;;;;;;11.19;100.00;102055.53;5074437;28;20063;-50
2022/01/01 04:52:15;;;;;;;28.05;16.55;;;;;;;11.48;100.00;102113.06;5056326;28;20125;-49
2022/01/01 04:54:43;;;;;;;28.08;16.52;;;;;;;10.73;100.00;101989.50;5074334;28;20119;-52
2022/01/01 04:57:08;;;;;;;31.15;16.90;;;;;;;10.99;100.00;102043.53;5074066;28;20051;-48
2022/01/01 04:59:34;;;;;;;28.17;15.80;;;;;;;11.40;100.00;102114.94;5056502;28;20040;-49
2022/01/01 05:02:00;;;;;;;32.17;17.02;;;;;;;11.00;100.00;102040.03;5074210;28;20037;-51
2022/01/01 05:04:25;;;;;;;26.52;15.35;;;;;;;11.03;100.00;102038.19;5056121;28;20506;-49
2022/01/01 05:06:52;;;;;;;29.77;15.15;;;;;;;11.42;100.00;102101.72;5073737;28;20045;-50
2022/01/01 05:09:18;;;;;;;29.77;14.95;;;;;;;11.11;100.00;102059.19;5073976;28;20040;-51
2022/01/01 05:11:43;;;;;;;35.17;15.95;;;;;;;11.42;100.00;102102.59;5073547;28;20078;-51
2022/01/01 05:14:09;;;;;;;26.23;14.70;;;;;;;11.32;100.00;102075.50;5073932;28;20060;-52
2022/01/01 05:16:34;;;;;;;34.03;15.05;;;;;;;11.35;100.00;102086.91;5055924;28;20041;-50
2022/01/01 05:18:59;;;;;;;26.50;15.82;;;;;;;11.35;100.00;102071.97;5073603;28;20143;-54
2022/01/01 05:21:27;;;;;;;27.23;16.10;;;;;;;11.00;100.00;102027.72;5073567;28;20059;-49
2022/01/01 05:23:52;;;;;;;32.22;15.98;;;;;;;11.30;100.00;102101.03;5073661;28;20086;-52
2022/01/01 05:26:18;;;;;;;27.95;16.23;;;;;;;11.21;100.00;102097.66;5074109;28;20119;-52
2022/01/01 05:28:44;;;;;;;26.92;15.98;;;;;;;10.77;100.00;102036.84;5055958;28;20042;-52
2022/01/01 05:31:10;;;;;;;28.98;16.58;;;;;;;10.99;100.00;102077.78;5073389;28;20037;-50
2022/01/01 05:33:35;;;;;;;32.28;16.58;;;;;;;10.63;100.00;102016.84;5073629;28;20349;-51
2022/01/01 05:36:01;;;;;;;24.90;16.38;;;;;;;10.83;100.00;102031.50;5073466;28;20024;-52
2022/01/01 05:38:26;;;;;;;30.42;14.88;;;;;;;11.10;100.00;102071.47;5073325;28;20464;-47
2022/01/01 05:40:52;;;;;;;28.20;15.35;;;;;;;10.71;100.00;101998.31;5073190;28;20445;-51
2022/01/01 05:43:17;;;;;;;28.35;15.95;;;;;;;10.88;100.00;102027.03;5055434;28;20040;-48
2022/01/01 05:45:43;;;;;;;27.27;14.95;;;;;;;11.07;100.00;102070.63;5073533;28;20039;-50
2022/01/01 05:48:09;;;;;;;25.73;15.02;;;;;;;10.88;100.00;102056.00;5072758;28;20055;-50
2022/01/01 05:50:35;;;;;;;25.30;14.27;;;;;;;10.71;100.00;102024.66;5073168;28;20040;-49
2022/01/01 05:53:00;;;;;;;32.55;14.77;;;;;;;10.99;100.00;102085.69;5072882;28;20059;-50
2022/01/01 05:55:26;;;;;;;20.77;13.70;;;;;;;10.89;100.00;102063.88;5072935;28;20036;-49
2022/01/01 05:57:51;;;;;;;24.77;14.57;;;;;;;10.67;100.00;102030.84;5072960;28;20033;-47
2022/01/01 06:00:17;;;;;;;32.30;13.57;;;;;;;11.01;100.00;102083.91;5055259;28;20048;-50
2022/01/01 06:02:43;;;;;;;23.40;13.40;;;;;;;11.03;100.00;102095.31;5038633;28;20119;-50
2022/01/01 06:05:09;;;;;;;24.77;13.38;;;;;;;11.00;100.00;102088.31;5055091;28;20032;-53
2022/01/01 06:07:35;;;;;;;25.42;14.02;;;;;;;11.07;100.00;102092.59;5072644;28;20503;-53
2022/01/01 06:10:00;;;;;;;23.83;13.00;;;;;;;10.97;100.00;102075.19;5072702;28;20029;-54
2022/01/01 06:12:26;;;;;;;26.98;12.73;;;;;;;10.91;100.00;102045.44;5072575;28;20037;-50
2022/01/01 06:14:52;;;;;;;23.65;13.05;;;;;;;11.21;100.00;102095.91;5072673;28;20031;-51
2022/01/01 06:17:17;;;;;;;23.92;13.20;;;;;;;10.86;100.00;102031.47;5072849;28;20033;-48
2022/01/01 06:19:43;;;;;;;24.40;13.27;;;;;;;10.82;100.00;102030.63;5072620;28;20391;-54
2022/01/01 06:22:08;;;;;;;20.75;12.10;;;;;;;10.81;100.00;102022.72;5054728;28;20032;-48
2022/01/01 06:24:33;;;;;;;22.30;12.60;;;;;;;10.87;100.00;102026.16;5072953;28;20059;-49
2022/01/01 06:26:59;;;;;;;22.65;12.05;;;;;;;11.17;100.00;102081.03;5072541;28;20024;-48
2022/01/01 06:29:24;;;;;;;26.38;11.43;;;;;;;11.32;100.00;102100.16;5054715;28;20388;-47
2022/01/01 06:31:49;;;;;;;21.80;11.55;;;;;;;10.92;100.00;102026.06;5072426;28;20502;-49
2022/01/01 06:34:15;;;;;;;28.33;11.82;;;;;;;11.09;100.00;102058.34;5072323;28;20106;-49
2022/01/01 06:36:40;;;;;;;22.63;12.35;;;;;;;10.87;100.00;102028.78;5072428;28;20067;-52
2022/01/01 06:39:05;;;;;;;23.52;12.07;;;;;;;11.23;100.00;102090.63;5072303;28;20063;-49
2022/01/01 06:41:31;;;;;;;24.38;11.68;;;;;;;11.27;100.00;102101.06;5054529;28;20448;-51
2022/01/01 06:43:56;;;;;;;18.95;10.98;;;;;;;11.26;100.00;102103.75;5072462;28;20059;-53
2022/01/01 06:46:22;;;;;;;24.48;11.43;;;;;;;10.94;100.00;102037.47;5072423;28;20514;-48
2022/01/01 06:48:47;;;;;;;20.42;11.02;;;;;;;11.23;100.00;102093.25;5072302;28;20037;-50
2022/01/01 06:51:13;;;;;;;19.65;9.57;;;;;;;10.96;100.00;102041.84;5072265;28;20369;-52
2022/01/01 06:53:38;;;;;;;18.40;9.63;;;;;;;11.23;100.00;102090.63;5072234;28;20085;-48
2022/01/01 06:56:05;;;;;;;21.92;10.73;;;;;;;11.31;100.00;102096.63;5054224;28;20036;-48
2022/01/01 06:58:32;;;;;;;22.90;11.48;;;;;;;10.92;100.00;102036.59;5072451;28;20036;-48
2022/01/01 07:00:57;;;;;;;16.50;9.32;;;;;;;10.99;100.00;102051.44;5060389;28;20395;-53
2022/01/01 07:03:23;;;;;;;19.90;10.32;;;;;;;11.28;100.00;102101.94;5078813;28;20029;-49
2022/01/01 07:05:49;;;;;;;16.73;8.98;;;;;;;11.31;100.00;102104.53;5078970;28;20545;-50
2022/01/01 07:08:14;;;;;;;20.02;9.27;;;;;;;11.21;100.00;102077.44;5079017;28;20144;-49
2022/01/01 07:10:41;;;;;;;16.05;8.50;;;;;;;11.18;100.00;102080.13;5078456;28;20124;-52
2022/01/01 07:13:07;;;;;;;15.85;9.32;;;;;;;11.21;100.00;102076.56;5078866;28;20099;-51
2022/01/01 07:15:32;;;;;;;17.58;8.80;;;;;;;11.23;100.00;102091.50;5078840;28;20394;-48
2022/01/01 07:17:58;;;;;;;15.98;9.68;;;;;;;11.35;100.00;102106.25;5078844;28;20299;-51
2022/01/01 07:20:23;;;;;;;21.77;9.82;;;;;;;11.36;100.00;102105.34;5078574;28;20442;-49
2022/01/01 07:22:49;;;;;;;24.75;10.85;;;;;;;11.31;100.00;102101.91;5078423;28;20029;-49
2022/01/01 07:25:15;;;;;;;19.55;10.30;;;;;;;11.24;100.00;102084.44;5078430;28;20040;-47
2022/01/01 07:27:40;;;;;;;22.85;10.90;;;;;;;10.96;100.00;102040.94;5078765;28;20032;-49
2022/01/01 07:30:07;;;;;;;25.98;11.50;;;;;;;11.33;100.00;102115.91;5078869;28;20074;-50
2022/01/01 07:32:32;;;;;;;23.15;10.80;;;;;;;11.35;100.00;102121.19;5060709;28;20032;-50
2022/01/01 07:34:58;;;;;;;20.48;10.68;;;;;;;11.35;100.00;102114.16;5043976;28;20043;-52
2022/01/01 07:37:23;;;;;;;22.02;12.02;;;;;;;11.36;100.00;102126.41;5078307;28;20043;-52
2022/01/01 07:39:48;;;;;;;18.83;11.10;;;;;;;10.92;100.00;102050.66;5060723;28;20033;-52
2022/01/01 07:42:14;;;;;;;21.85;11.80;;;;;;;11.32;100.00;102127.38;5078715;28;20396;-50
2022/01/01 07:44:40;;;;;;;16.45;11.13;;;;;;;11.27;100.00;102122.16;5060725;28;20070;-54
2022/01/01 07:47:06;;;;;;;19.55;11.23;;;;;;;11.26;100.00;102124.84;5078456;28;20398;-48
2022/01/01 07:49:31;;;;;;;21.35;11.80;;;;;;;11.32;100.00;102126.50;5078463;28;20028;-49
2022/01/01 07:51:57;;;;;;;21.83;11.30;;;;;;;11.25;100.00;102109.91;5078152;28;20036;-52
2022/01/01 07:54:22;;;;;;;20.73;11.73;;;;;;;11.32;100.00;102120.31;5078265;28;20034;-48
2022/01/01 07:56:47;;;;;;;24.50;12.00;;;;;;;11.28;100.00;102123.91;5060734;28;20083;-49
2022/01/01 07:59:13;;;;;;;19.67;12.10;;;;;;;11.30;100.00;102106.31;5060523;28;20036;-51
2022/01/01 08:01:40;;;;;;;22.92;11.55;;;;;;;11.35;100.00;102114.16;5078319;28;20086;-51
2022/01/01 08:04:05;;;;;;;17.75;11.77;;;;;;;11.13;100.00;102076.69;5078108;28;20063;-49
2022/01/01 08:06:31;;;;;;;24.85;12.55;;;;;;;11.11;100.00;102088.16;5060311;28;20060;-52
2022/01/01 08:08:56;;;;;;;23.92;12.65;;;;;;;11.30;100.00;102129.16;5056605;28;20128;-49
2022/01/01 08:11:21;;;;;;;23.52;12.90;;;;;;;11.29;100.00;102136.19;5056316;28;20102;-53
2022/01/01 08:13:47;;;;;;;19.50;12.68;;;;;;;11.30;100.00;102131.78;5055004;28;20033;-49
2022/01/01 08:16:12;;;;;;;20.77;12.07;;;;;;;11.33;100.00;102137.00;5055138;28;20051;-49
2022/01/01 08:18:37;;;;;;;23.25;13.20;;;;;;;11.11;100.00;102098.69;5054930;28;20112;-51
2022/01/01 08:21:03;;;;;;;25.35;12.75;;;;;;;11.05;100.00;102083.84;5054951;28;20067;-46
2022/01/01 08:23:28;;;;;;;19.55;12.27;;;;;;;11.22;100.00;102109.94;5054947;28;20119;-51
2022/01/01 08:25:56;;;;;;;24.17;12.90;;;;;;;10.99;100.00;102072.53;5054891;28;20400;-49
2022/01/01 08:28:21;;;;;;;20.40;12.50;;;;;;;11.38;100.00;102136.97;5053946;28;20508;-48
2022/01/01 08:30:46;;;;;;;20.10;12.38;;;;;;;11.41;100.00;102132.53;5054874;28;20060;-54
2022/01/01 08:33:12;;;;;;;23.75;13.65;;;;;;;11.41;100.00;102129.00;5054689;28;20036;-53
2022/01/01 08:35:37;;;;;;;18.65;13.00;;;;;;;11.30;100.00;102113.34;5054634;28;20066;-51
2022/01/01 08:38:04;;;;;;;22.33;13.35;;;;;;;11.36;100.00;102107.97;5053415;28;20128;-51
2022/01/01 08:40:31;;;;;;;22.60;13.32;;;;;;;10.96;100.00;102026.03;5054606;28;20043;-49
2022/01/01 08:42:57;;;;;;;22.63;13.30;;;;;;;11.12;100.00;102068.84;5054671;28;20037;-50
2022/01/01 08:45:22;;;;;;;23.88;13.82;;;;;;;11.29;100.00;102108.97;5053409;28;20033;-50
2022/01/01 08:47:48;;;;;;;23.65;14.13;;;;;;;10.76;100.00;102014.91;5053199;28;20033;-53
2022/01/01 08:50:13;;;;;;;20.48;13.15;;;;;;;11.24;100.00;102090.56;5053133;28;20033;-52
2022/01/01 08:52:40;;;;;;;26.75;13.73;;;;;;;11.20;100.00;102077.47;5054239;28;20032;-54
2022/01/01 08:55:05;;;;;;;23.23;14.32;;;;;;;10.84;100.00;102018.31;5054494;28;20076;-52
2022/01/01 08:57:32;;;;;;;22.75;13.95;;;;;;;10.87;100.00;102025.28;5053092;28;20063;-54
2022/01/01 08:59:58;;;;;;;22.85;14.23;;;;;;;11.18;100.00;102084.53;5054198;28;20484;-50
2022/01/01 09:02:23;;;;;;;24.10;13.52;;;;;;;11.20;100.00;102088.91;5052834;28;20120;-50
2022/01/01 09:04:49;;;;;;;22.15;14.38;;;;;;;10.94;100.00;102046.25;5054054;28;20477;-48
2022/01/01 09:07:14;;;;;;;27.02;15.63;;;;;;;11.13;100.00;102075.81;5059302;28;20524;-50
2022/01/01 09:09:40;;;;;;;24.75;15.10;;;;;;;10.95;100.00;102036.56;5073927;28;20522;-50
2022/01/01 09:12:09;;;;;;;27.67;15.27;;;;;;;10.93;100.00;102041.00;5073880;28;20041;-50
2022/01/01 09:14:35;;;;;;;27.60;16.45;;;;;;;10.83;100.00;102018.34;5056058;28;20069;-48
2022/01/01 09:17:00;;;;;;;24.40;15.93;;;;;;;11.20;100.00;102086.25;5073581;28;20025;-51
2022/01/01 09:19:26;;;;;;;24.88;15.75;;;;;;;10.77;100.00;102007.88;5073852;28;20047;-51
2022/01/01 09:21:52;;;;;;;27.38;17.83;;;;;;;11.07;100.00;102068.00;5073348;28;20396;-52
2022/01/01 09:24:17;;;;;;;27.02;18.33;;;;;;;10.39;100.00;101961.88;5073645;28;20090;-50
2022/01/01 09:26:42;;;;;;;29.33;19.85;;;;;;;10.69;100.00;101998.31;5073809;28;20111;-52
2022/01/01 09:29:10;;;;;;;30.33;21.40;;;;;;;10.80;100.00;101997.31;5073524;28;20036;-54
2022/01/01 09:31:37;;;;;;;38.28;23.45;;;;;;;11.21;100.00;102051.09;5073336;28;20044;-50
2022/01/01 09:34:03;;;;;;;47.83;29.48;;;;;;;11.28;100.00;102047.47;5073527;28;20033;-53
2022/01/01 09:36:29;;;;;;;40.72;26.90;;;;;;;11.35;100.00;102048.25;5073499;28;20116;-50
2022/01/01 09:38:54;;;;;;;39.63;28.08;;;;;;;11.35;100.00;102039.47;5073521;28;20128;-50
2022/01/01 09:41:19;;;;;;;49.08;30.67;;;;;;;11.28;100.00;102042.19;5038938;28;20261;-51
2022/01/01 09:43:45;;;;;;;43.45;29.67;;;;;;;11.22;100.00;102028.25;5055135;28;20037;-52
2022/01/01 09:46:13;;;;;;;48.13;31.42;;;;;;;11.08;100.00;102017.94;5073198;28;20032;-54
2022/01/01 09:48:39;;;;;;;46.40;32.42;;;;;;;10.91;100.00;101998.00;5055301;28;20074;-49
2022/01/01 09:51:06;;;;;;;50.33;30.90;;;;;;;11.22;100.00;102065.16;5055089;28;20068;-49
2022/01/01 09:53:32;;;;;;;45.60;32.22;;;;;;;11.16;100.00;102057.31;5073031;28;20028;-51
2022/01/01 09:56:01;;;;;;;42.05;29.83;;;;;;;11.01;100.00;102020.66;5073263;28;20041;-49
2022/01/01 09:58:28;;;;;;;49.00;32.22;;;;;;;10.83;100.00;102003.38;5073001;28;20464;-49
2022/01/01 10:00:54;;;;;;;45.50;31.23;;;;;;;10.96;100.00;102022.50;5073217;28;20028;-50
2022/01/01 10:03:33;;;;;;;50.92;32.90;;;;;;;10.81;100.00;101986.75;5072760;28;20119;-50
2022/01/01 10:06:01;;;;;;;53.60;34.17;;;;;;;11.28;100.00;102065.06;5055919;28;20376;-49
2022/01/01 10:08:26;;;;;;;52.00;35.42;;;;;;;10.98;100.00;102003.16;5072436;28;20106;-52
2022/01/01 10:10:52;;;;;;;49.10;34.05;;;;;;;11.34;100.00;102059.69;5054999;28;20475;-52
2022/01/01 10:13:18;;;;;;;56.75;34.45;;;;;;;11.38;100.00;102060.50;5072853;28;20044;-53
2022/01/01 10:15:43;;;;;;;51.63;34.78;;;;;;;11.41;100.00;102058.69;5072529;28;20082;-53
2022/01/01 10:18:08;;;;;;;52.40;34.10;;;;;;;11.38;100.00;102060.50;5054449;28;20029;-51
2022/01/01 10:20:43;;;;;;;57.60;38.28;;;;;;;11.38;100.00;102064.03;5054807;28;20024;-52
2022/01/01 10:23:14;;;;;;;57.63;36.92;;;;;;;11.42;100.00;102078.00;5072781;28;20154;-53
2022/01/01 10:28:24;;;;;;;48.80;34.25;;;;;;;11.51;100.00;102062.91;5072567;28;20279;-49
2022/01/01 10:30:49;;;;;;;51.00;35.28;;;;;;;11.14;100.00;101987.97;5072447;28;20032;-52
2022/01/01 10:33:16;;;;;;;48.53;35.78;;;;;;;11.62;100.00;102049.53;5072393;28;20059;-48
2022/01/01 10:35:43;;;;;;;50.63;35.15;;;;;;;11.73;100.00;102056.38;5071674;28;20035;-50
2022/01/01 10:38:28;;;;;;;48.35;33.35;;;;;;;11.42;100.00;101993.63;5054659;28;20020;-50
2022/01/01 10:41:07;;;;;;;48.67;34.53;;;;;;;11.46;100.00;101993.56;5072448;28;20046;-53
2022/01/01 10:43:38;;;;;;;46.30;33.55;;;;;;;11.91;100.00;102047.25;5072313;28;20046;-49
2022/01/01 10:46:04;;;;;;;43.78;31.67;;;;;;;11.93;100.00;102031.41;5072509;28;20100;-50
2022/01/01 10:51:01;;;;;;;;;;;;;;;12.07;100.00;102034.66;5072753;28;20040;-51
2022/01/01 10:53:28;;;;;;;41.67;29.50;;;;;;;12.12;100.00;102038.94;5054183;28;20018;-47
2022/01/01 10:55:56;;;;;;;39.67;28.35;;;;;;;12.14;100.00;102033.66;5072001;28;20306;-55
2022/01/01 10:58:26;;;;;;;42.15;29.05;;;;;;;12.10;100.00;102010.84;5054339;28;20044;-51
2022/01/01 11:00:52;;;;;;;36.40;27.98;;;;;;;12.24;100.00;102025.50;5072145;28;20036;-50
2022/01/01 11:03:18;;;;;;;35.78;27.95;;;;;;;12.34;100.00;102032.34;5071690;28;20033;-51